createdAt,value
2023-12-03T00:00:21.914Z,-0.10
2023-12-03T00:02:50.283Z,-0.10
2023-12-03T00:05:18.533Z,-0.10
2023-12-03T00:07:47.173Z,-0.10
2023-12-03T00:10:15.939Z,-0.10
2023-12-03T00:12:45.264Z,-0.20
2023-12-03T00:15:14.962Z,-0.20
2023-12-03T00:17:43.244Z,-0.20
2023-12-03T00:20:12.409Z,-0.20
2023-12-03T00:22:40.610Z,-0.20
2023-12-03T00:25:09.619Z,-0.20
2023-12-03T00:27:37.795Z,-0.30
2023-12-03T00:30:06.788Z,-0.30
2023-12-03T00:32:38.557Z,-0.30
2023-12-03T00:35:07.748Z,-0.30
2023-12-03T00:37:35.920Z,-0.30
2023-12-03T00:40:04.206Z,-0.30
2023-12-03T00:42:34.462Z,-0.30
2023-12-03T00:45:02.806Z,-0.30
2023-12-03T00:47:35.450Z,-0.30
2023-12-03T00:50:05.927Z,-0.30
2023-12-03T00:52:34.282Z,-0.30
2023-12-03T00:55:03.872Z,-0.30
2023-12-03T00:57:32.489Z,-0.30
2023-12-03T01:00:00.666Z,-0.20
2023-12-03T01:02:28.903Z,-0.20
2023-12-03T01:04:57.103Z,-0.20
2023-12-03T01:07:26.648Z,-0.20
2023-12-03T01:09:54.857Z,-0.20
2023-12-03T01:12:23.505Z,-0.20
2023-12-03T01:14:52.066Z,-0.20
2023-12-03T01:17:20.476Z,-0.20
2023-12-03T01:19:48.617Z,-0.20
2023-12-03T01:22:16.912Z,-0.10
2023-12-03T01:24:49.067Z,-0.20
2023-12-03T01:27:17.259Z,-0.20
2023-12-03T01:29:45.593Z,-0.20
2023-12-03T01:32:13.725Z,-0.20
2023-12-03T01:34:43.963Z,-0.20
2023-12-03T01:37:12.169Z,-0.20
2023-12-03T01:39:40.449Z,-0.20
2023-12-03T01:42:09.959Z,-0.20
2023-12-03T01:44:38.157Z,-0.20
2023-12-03T01:47:06.461Z,-0.20
2023-12-03T01:49:34.876Z,-0.20
2023-12-03T01:52:04.545Z,-0.20
2023-12-03T01:54:37.383Z,-0.30
2023-12-03T01:57:06.007Z,-0.30
2023-12-03T01:59:37.839Z,-0.30
2023-12-03T02:02:06.514Z,-0.30
2023-12-03T02:04:34.873Z,-0.20
2023-12-03T02:07:03.080Z,-0.30
2023-12-03T02:09:31.860Z,-0.30
2023-12-03T02:12:00.052Z,-0.30
2023-12-03T02:14:28.298Z,-0.30
2023-12-03T02:16:57.753Z,-0.20
2023-12-03T02:19:25.927Z,-0.20
2023-12-03T02:21:54.160Z,-0.20
2023-12-03T02:24:23.681Z,-0.20
2023-12-03T02:26:51.931Z,-0.20
2023-12-03T02:29:20.059Z,-0.20
2023-12-03T02:31:48.136Z,-0.20
2023-12-03T02:34:16.622Z,-0.20
2023-12-03T02:36:44.852Z,-0.30
2023-12-03T02:39:14.223Z,-0.30
2023-12-03T02:41:43.787Z,-0.30
2023-12-03T02:44:11.974Z,-0.30
2023-12-03T02:46:40.116Z,-0.30
2023-12-03T02:49:11.146Z,-0.20
2023-12-03T02:51:39.339Z,-0.20
2023-12-03T02:54:08.915Z,-0.20
2023-12-03T02:56:37.067Z,-0.30
2023-12-03T02:59:06.602Z,-0.20
2023-12-03T03:01:34.693Z,-0.20
2023-12-03T03:04:02.870Z,-0.20
2023-12-03T03:06:31.184Z,-0.20
2023-12-03T03:08:59.390Z,-0.20
2023-12-03T03:11:27.485Z,-0.10
2023-12-03T03:13:57.996Z,-0.10
2023-12-03T03:16:27.960Z,-0.10
2023-12-03T03:18:56.430Z,-0.10
2023-12-03T03:21:24.666Z,-0.10
2023-12-03T03:23:52.847Z,-0.10
2023-12-03T03:26:20.936Z,-0.10
2023-12-03T03:28:49.093Z,-0.20
2023-12-03T03:31:17.332Z,-0.10
2023-12-03T03:33:46.856Z,-0.10
2023-12-03T03:36:18.225Z,-0.10
2023-12-03T03:38:46.411Z,-0.10
2023-12-03T03:41:14.581Z,-0.10
2023-12-03T03:43:42.914Z,-0.10
2023-12-03T03:46:12.809Z,0.00
2023-12-03T03:48:41.047Z,-0.10
2023-12-03T03:51:10.777Z,0.00
2023-12-03T03:53:38.936Z,0.00
2023-12-03T03:56:10.671Z,0.00
2023-12-03T03:58:38.989Z,0.00
2023-12-03T04:01:07.368Z,-0.10
2023-12-03T04:03:35.813Z,0.00
2023-12-03T04:06:05.556Z,0.00
2023-12-03T04:08:36.025Z,0.00
2023-12-03T04:11:04.686Z,0.00
2023-12-03T04:13:35.216Z,0.00
2023-12-03T04:16:03.286Z,0.00
2023-12-03T04:18:31.535Z,0.00
2023-12-03T04:20:59.722Z,0.00
2023-12-03T04:23:27.893Z,0.00
2023-12-03T04:25:57.283Z,0.00
2023-12-03T04:28:25.353Z,0.10
2023-12-03T04:30:55.585Z,0.00
2023-12-03T04:33:26.048Z,0.10
2023-12-03T04:35:54.200Z,0.10
2023-12-03T04:38:22.328Z,0.10
2023-12-03T04:40:50.417Z,0.10
2023-12-03T04:43:19.933Z,0.10
2023-12-03T04:45:48.025Z,0.10
2023-12-03T04:48:16.209Z,0.10
2023-12-03T04:50:44.440Z,0.20
2023-12-03T04:53:12.522Z,0.20
2023-12-03T04:55:40.591Z,0.20
2023-12-03T04:58:08.737Z,0.20
2023-12-03T05:00:38.205Z,0.20
2023-12-03T05:03:06.684Z,0.20
2023-12-03T05:05:34.811Z,0.20
2023-12-03T05:08:02.915Z,0.20
2023-12-03T05:10:31.601Z,0.10
2023-12-03T05:12:59.982Z,0.10
2023-12-03T05:15:28.169Z,0.10
2023-12-03T05:17:57.779Z,0.20
2023-12-03T05:20:25.976Z,0.20
2023-12-03T05:22:54.693Z,0.10
2023-12-03T05:25:22.960Z,0.20
2023-12-03T05:27:51.330Z,0.10
2023-12-03T05:30:19.991Z,0.10
2023-12-03T05:32:48.248Z,0.10
2023-12-03T05:35:17.829Z,0.10
2023-12-03T05:37:48.050Z,0.10
2023-12-03T05:40:16.161Z,0.10
2023-12-03T05:42:44.548Z,0.10
2023-12-03T05:45:12.710Z,0.20
2023-12-03T05:47:42.090Z,0.10
2023-12-03T05:50:10.598Z,0.20
2023-12-03T05:52:40.076Z,0.20
2023-12-03T05:55:08.770Z,0.10
2023-12-03T05:57:37.158Z,0.20
2023-12-03T06:00:07.302Z,0.20
2023-12-03T06:02:36.051Z,0.10
2023-12-03T06:05:04.409Z,0.20
2023-12-03T06:07:34.798Z,0.10
2023-12-03T06:10:04.669Z,0.10
2023-12-03T06:12:35.196Z,0.10
2023-12-03T06:15:04.627Z,0.10
2023-12-03T06:17:32.926Z,0.10
2023-12-03T06:20:01.103Z,0.10
2023-12-03T06:22:29.379Z,0.10
2023-12-03T06:24:57.491Z,0.20
2023-12-03T06:27:29.102Z,0.10
2023-12-03T06:29:58.701Z,0.10
2023-12-03T06:32:26.870Z,0.10
2023-12-03T06:34:54.990Z,0.10
2023-12-03T06:37:23.079Z,0.10
2023-12-03T06:39:51.640Z,0.10
2023-12-03T06:42:19.890Z,0.10
2023-12-03T06:44:51.386Z,0.10
2023-12-03T06:47:19.486Z,0.10
2023-12-03T06:49:48.753Z,0.10
2023-12-03T06:52:16.856Z,0.10
2023-12-03T06:54:45.048Z,0.10
2023-12-03T06:57:13.228Z,0.10
2023-12-03T06:59:41.336Z,0.10
2023-12-03T07:02:10.883Z,0.10
2023-12-03T07:04:39.767Z,0.10
2023-12-03T07:07:08.043Z,0.00
2023-12-03T07:09:39.759Z,0.10
2023-12-03T07:12:09.286Z,0.00
2023-12-03T07:14:37.497Z,0.10
2023-12-03T07:17:06.000Z,0.00
2023-12-03T07:19:35.791Z,0.00
2023-12-03T07:22:04.109Z,0.00
2023-12-03T07:24:32.251Z,0.00
2023-12-03T07:27:00.404Z,0.00
2023-12-03T07:29:28.483Z,0.00
2023-12-03T07:31:56.603Z,0.00
2023-12-03T07:34:24.824Z,0.00
2023-12-03T07:36:54.596Z,0.00
2023-12-03T07:39:25.357Z,0.00
2023-12-03T07:41:54.560Z,0.00
2023-12-03T07:44:23.797Z,0.00
2023-12-03T07:46:54.152Z,-0.10
2023-12-03T07:49:22.382Z,-0.10
2023-12-03T07:51:50.689Z,0.00
2023-12-03T07:54:22.511Z,0.00
2023-12-03T07:56:50.681Z,0.00
2023-12-03T07:59:18.785Z,0.00
2023-12-03T08:01:49.668Z,0.00
2023-12-03T08:04:17.880Z,0.00
2023-12-03T08:06:48.305Z,0.00
2023-12-03T08:09:16.602Z,0.00
2023-12-03T08:11:46.186Z,0.00
2023-12-03T08:14:14.382Z,0.00
2023-12-03T08:16:42.509Z,0.00
2023-12-03T08:19:10.874Z,0.10
2023-12-03T08:21:39.194Z,0.00
2023-12-03T08:24:07.693Z,0.00
2023-12-03T08:26:36.426Z,0.00
2023-12-03T08:29:06.651Z,0.00
2023-12-03T08:31:34.770Z,0.00
2023-12-03T08:34:03.652Z,0.00
2023-12-03T08:36:32.508Z,0.00
2023-12-03T08:39:02.785Z,0.00
2023-12-03T08:41:30.954Z,-0.10
2023-12-03T08:43:59.076Z,0.00
2023-12-03T08:46:30.859Z,0.00
2023-12-03T08:48:59.239Z,0.00
2023-12-03T08:51:27.546Z,0.00
2023-12-03T08:53:56.397Z,-0.10
2023-12-03T08:56:24.539Z,-0.10
2023-12-03T08:58:52.648Z,-0.10
2023-12-03T09:01:21.530Z,0.00
2023-12-03T09:03:51.475Z,0.00
2023-12-03T09:06:20.334Z,0.10
2023-12-03T09:08:48.483Z,0.10
2023-12-03T09:11:16.674Z,0.20
2023-12-03T09:13:44.802Z,0.20
2023-12-03T09:16:14.995Z,0.30
2023-12-03T09:18:43.164Z,0.20
2023-12-03T09:21:14.380Z,0.20
2023-12-03T09:23:45.929Z,0.10
2023-12-03T09:26:14.477Z,0.20
2023-12-03T09:28:44.741Z,0.20
2023-12-03T09:31:13.890Z,0.20
2023-12-03T09:33:42.186Z,0.10
2023-12-03T09:36:12.741Z,0.10
2023-12-03T09:38:42.920Z,0.00
2023-12-03T09:41:14.482Z,0.00
2023-12-03T09:43:49.054Z,0.00
2023-12-03T09:46:17.213Z,0.00
2023-12-03T09:48:46.086Z,0.00
2023-12-03T09:51:18.025Z,0.10
2023-12-03T09:53:47.219Z,0.10
2023-12-03T09:56:17.509Z,0.20
2023-12-03T09:58:48.276Z,0.30
2023-12-03T10:01:18.070Z,0.30
2023-12-03T10:03:48.416Z,0.30
2023-12-03T10:06:21.031Z,0.40
2023-12-03T10:08:50.492Z,0.40
2023-12-03T10:11:25.810Z,0.50
2023-12-03T10:13:58.017Z,0.50
2023-12-03T10:16:28.260Z,0.50
2023-12-03T10:18:58.866Z,0.40
2023-12-03T10:21:28.946Z,0.50
2023-12-03T10:24:00.277Z,0.50
2023-12-03T10:26:28.582Z,0.50
2023-12-03T10:28:56.749Z,0.50
2023-12-03T10:31:25.179Z,0.60
2023-12-03T10:33:54.429Z,0.60
2023-12-03T10:36:22.741Z,0.70
2023-12-03T10:38:54.623Z,0.80
2023-12-03T10:41:22.734Z,0.80
2023-12-03T10:43:50.969Z,0.70
2023-12-03T10:46:21.317Z,0.70
2023-12-03T10:48:53.672Z,0.70
2023-12-03T10:51:21.970Z,0.70
2023-12-03T10:53:50.285Z,0.80
2023-12-03T10:56:20.261Z,0.70
2023-12-03T10:58:50.021Z,0.70
2023-12-03T11:01:21.404Z,0.70
2023-12-03T11:03:58.074Z,0.70
2023-12-03T11:06:27.607Z,0.70
2023-12-03T11:08:58.061Z,0.70
2023-12-03T11:11:28.119Z,0.70
2023-12-03T11:13:57.954Z,0.70
2023-12-03T11:16:30.709Z,0.70
2023-12-03T11:19:05.442Z,0.70
2023-12-03T11:21:41.067Z,0.70
2023-12-03T11:24:37.137Z,0.70
2023-12-03T11:27:07.612Z,0.80
2023-12-03T11:29:49.256Z,0.80
2023-12-03T11:32:17.782Z,0.70
2023-12-03T11:34:46.155Z,0.80
2023-12-03T11:37:14.648Z,0.70
2023-12-03T11:39:44.943Z,0.70
2023-12-03T11:42:16.140Z,0.80
2023-12-03T11:44:44.495Z,0.80
2023-12-03T11:47:16.513Z,0.70
2023-12-03T11:49:44.975Z,0.70
2023-12-03T11:52:13.217Z,0.70
2023-12-03T11:54:46.887Z,0.60
2023-12-03T11:57:16.870Z,0.70
2023-12-03T11:59:45.528Z,0.70
2023-12-03T12:02:14.728Z,0.70
2023-12-03T12:04:45.434Z,0.70
2023-12-03T12:07:16.049Z,0.70
2023-12-03T12:09:44.550Z,0.70
2023-12-03T12:12:16.527Z,0.70
2023-12-03T12:14:44.824Z,0.80
2023-12-03T12:17:13.388Z,0.80
2023-12-03T12:19:47.639Z,0.80
2023-12-03T12:22:16.045Z,0.70
2023-12-03T12:24:44.585Z,0.70
2023-12-03T12:27:13.070Z,0.70
2023-12-03T12:29:44.864Z,0.60
2023-12-03T12:32:13.101Z,0.60
2023-12-03T12:34:43.555Z,0.60
2023-12-03T12:37:12.346Z,0.60
2023-12-03T12:39:42.963Z,0.60
2023-12-03T12:42:25.526Z,0.60
2023-12-03T12:44:55.162Z,0.50
2023-12-03T12:47:23.334Z,0.50
2023-12-03T12:49:57.056Z,0.50
2023-12-03T12:52:26.354Z,0.50
2023-12-03T12:54:59.177Z,0.50
2023-12-03T12:57:54.102Z,0.50
2023-12-03T13:00:23.825Z,0.60
2023-12-03T13:02:54.870Z,0.60
2023-12-03T13:05:25.174Z,0.60
2023-12-03T13:07:55.305Z,0.60
2023-12-03T13:10:24.454Z,0.60
2023-12-03T13:12:53.686Z,0.50
2023-12-03T13:15:23.906Z,0.60
2023-12-03T13:17:55.417Z,0.50
2023-12-03T13:20:23.966Z,0.50
2023-12-03T13:22:54.826Z,0.40
2023-12-03T13:25:23.172Z,0.50
2023-12-03T13:27:51.601Z,0.50
2023-12-03T13:30:20.107Z,0.60
2023-12-03T13:32:51.934Z,0.60
2023-12-03T13:35:20.570Z,0.50
2023-12-03T13:37:50.765Z,0.60
2023-12-03T13:40:20.001Z,0.60
2023-12-03T13:42:53.624Z,0.60
2023-12-03T13:45:22.586Z,0.50
2023-12-03T13:47:52.563Z,0.50
2023-12-03T13:50:20.861Z,0.50
2023-12-03T13:52:49.103Z,0.40
2023-12-03T13:55:17.418Z,0.40
2023-12-03T13:57:45.825Z,0.50
2023-12-03T14:00:15.701Z,0.40
2023-12-03T14:02:44.137Z,0.50
2023-12-03T14:05:21.257Z,0.50
2023-12-03T14:07:55.641Z,0.50
2023-12-03T14:10:24.630Z,0.50
2023-12-03T14:12:53.248Z,0.50
2023-12-03T14:15:21.613Z,0.50
2023-12-03T14:17:50.481Z,0.50
2023-12-03T14:20:20.252Z,0.50
2023-12-03T14:22:48.369Z,0.60
2023-12-03T14:25:16.741Z,0.50
2023-12-03T14:27:46.325Z,0.50
2023-12-03T14:30:15.379Z,0.50
2023-12-03T14:32:43.759Z,0.50
2023-12-03T14:35:12.366Z,0.50
2023-12-03T14:37:41.994Z,0.50
2023-12-03T14:40:15.707Z,0.50
2023-12-03T14:42:44.034Z,0.50
2023-12-03T14:45:13.323Z,0.40
2023-12-03T14:47:42.379Z,0.40
2023-12-03T14:50:10.946Z,0.40
2023-12-03T14:52:43.530Z,0.30
2023-12-03T14:55:12.302Z,0.30
2023-12-03T14:57:41.503Z,0.30
2023-12-03T15:00:13.509Z,0.30
2023-12-03T15:02:41.886Z,0.30
2023-12-03T15:05:10.576Z,0.40
2023-12-03T15:07:39.214Z,0.30
2023-12-03T15:10:11.580Z,0.30
2023-12-03T15:12:39.876Z,0.30
2023-12-03T15:15:09.711Z,0.30
2023-12-03T15:17:40.318Z,0.30
2023-12-03T15:20:09.585Z,0.30
2023-12-03T15:22:38.009Z,0.30
2023-12-03T15:25:07.550Z,0.30
2023-12-03T15:27:37.159Z,0.20
2023-12-03T15:30:06.429Z,0.30
2023-12-03T15:32:37.084Z,0.20
2023-12-03T15:35:05.972Z,0.20
2023-12-03T15:37:35.484Z,0.50
2023-12-03T15:40:04.133Z,0.30
2023-12-03T15:42:32.399Z,0.30
2023-12-03T15:45:02.262Z,0.30
2023-12-03T15:47:30.471Z,0.30
2023-12-03T15:49:59.457Z,0.30
2023-12-03T15:52:29.688Z,0.30
2023-12-03T15:55:08.003Z,0.30
2023-12-03T15:57:45.665Z,0.30
2023-12-03T16:00:15.939Z,0.30
2023-12-03T16:03:04.126Z,0.30
2023-12-03T16:05:32.518Z,0.30
2023-12-03T16:08:00.943Z,0.30
2023-12-03T16:10:29.598Z,0.30
2023-12-03T16:12:58.791Z,0.30
2023-12-03T16:15:30.672Z,0.30
2023-12-03T16:17:59.082Z,0.30
2023-12-03T16:20:32.108Z,0.30
2023-12-03T16:23:00.353Z,0.30
2023-12-03T16:25:29.692Z,0.20
2023-12-03T16:27:58.638Z,0.20
2023-12-03T16:30:26.965Z,0.10
2023-12-03T16:32:56.788Z,0.10
2023-12-03T16:35:25.267Z,0.10
2023-12-03T16:37:53.782Z,0.10
2023-12-03T16:40:23.403Z,0.10
2023-12-03T16:42:51.693Z,0.10
2023-12-03T16:45:19.974Z,0.20
2023-12-03T16:47:48.183Z,0.20
2023-12-03T16:50:17.891Z,0.20
2023-12-03T16:52:46.090Z,0.10
2023-12-03T16:55:14.552Z,0.10
2023-12-03T16:57:42.861Z,0.00
2023-12-03T17:00:11.523Z,0.00
2023-12-03T17:02:39.717Z,0.00
2023-12-03T17:05:08.494Z,0.00
2023-12-03T17:07:39.962Z,0.00
2023-12-03T17:10:09.123Z,0.00
2023-12-03T17:12:44.604Z,0.00
2023-12-03T17:15:19.233Z,0.00
2023-12-03T17:17:47.500Z,0.00
2023-12-03T17:20:17.737Z,0.00
2023-12-03T17:22:47.257Z,0.00
2023-12-03T17:25:17.683Z,0.00
2023-12-03T17:27:46.468Z,0.00
2023-12-03T17:30:18.206Z,0.00
2023-12-03T17:32:48.481Z,0.00
2023-12-03T17:35:17.625Z,0.00
2023-12-03T17:37:47.770Z,-0.10
2023-12-03T17:40:16.336Z,-0.10
2023-12-03T17:42:45.884Z,-0.10
2023-12-03T17:45:15.126Z,-0.10
2023-12-03T17:47:44.217Z,-0.10
2023-12-03T17:50:12.860Z,0.00
2023-12-03T17:52:41.224Z,0.00
2023-12-03T17:55:11.081Z,-0.10
2023-12-03T17:57:39.786Z,-0.10
2023-12-03T18:00:09.506Z,-0.10
2023-12-03T18:02:43.241Z,-0.10
2023-12-03T18:05:11.601Z,-0.10
2023-12-03T18:07:39.883Z,-0.10
2023-12-03T18:10:12.574Z,-0.20
2023-12-03T18:12:40.939Z,-0.20
2023-12-03T18:15:10.290Z,-0.10
2023-12-03T18:17:39.444Z,-0.10
2023-12-03T18:20:09.999Z,0.00
2023-12-03T18:22:38.549Z,0.00
2023-12-03T18:25:07.421Z,-0.10
2023-12-03T18:27:37.026Z,-0.10
2023-12-03T18:30:05.893Z,-0.10
2023-12-03T18:32:34.247Z,-0.10
2023-12-03T18:35:02.529Z,0.00
2023-12-03T18:37:30.695Z,0.00
2023-12-03T18:39:59.037Z,0.00
2023-12-03T18:42:27.844Z,0.00
2023-12-03T18:44:57.673Z,0.00
2023-12-03T18:47:25.945Z,0.00
2023-12-03T18:49:54.268Z,0.00
2023-12-03T18:52:22.480Z,0.00
2023-12-03T18:54:53.301Z,0.00
2023-12-03T18:57:21.597Z,0.00
2023-12-03T18:59:53.352Z,0.00
2023-12-03T19:02:23.025Z,-0.10
2023-12-03T19:04:51.216Z,-0.10
2023-12-03T19:07:19.460Z,-0.10
2023-12-03T19:09:47.772Z,-0.10
2023-12-03T19:12:15.966Z,-0.20
2023-12-03T19:14:46.474Z,-0.20
2023-12-03T19:17:14.718Z,-0.20
2023-12-03T19:19:44.354Z,-0.20
2023-12-03T19:22:12.636Z,-0.30
2023-12-03T19:24:40.968Z,-0.30
2023-12-03T19:27:09.160Z,-0.30
2023-12-03T19:29:38.159Z,-0.30
2023-12-03T19:32:07.565Z,-0.30
2023-12-03T19:34:36.094Z,-0.30
2023-12-03T19:37:06.075Z,-0.40
2023-12-03T19:39:35.184Z,-0.50
2023-12-03T19:42:03.471Z,-0.40
2023-12-03T19:44:32.197Z,-0.50
2023-12-03T19:47:00.360Z,-0.50
2023-12-03T19:49:30.229Z,-0.50
2023-12-03T19:51:58.565Z,-0.50
2023-12-03T19:54:28.129Z,-0.50
2023-12-03T19:56:56.291Z,-0.50
2023-12-03T19:59:24.392Z,-0.60
2023-12-03T20:01:53.344Z,-0.60
2023-12-03T20:04:21.621Z,-0.50
2023-12-03T20:06:52.258Z,-0.60
2023-12-03T20:09:20.563Z,-0.60
2023-12-03T20:11:50.623Z,-0.60
2023-12-03T20:14:21.456Z,-0.60
2023-12-03T20:16:50.187Z,-0.70
2023-12-03T20:19:20.674Z,-0.70
2023-12-03T20:21:49.002Z,-0.70
2023-12-03T20:24:17.704Z,-0.70
2023-12-03T20:26:46.045Z,-0.70
2023-12-03T20:29:15.757Z,-0.70
2023-12-03T20:31:46.641Z,-0.70
2023-12-03T20:34:14.919Z,-0.70
2023-12-03T20:36:43.256Z,-0.70
2023-12-03T20:39:13.502Z,-0.70
2023-12-03T20:41:44.715Z,-0.70
2023-12-03T20:44:14.041Z,-0.70
2023-12-03T20:46:46.534Z,-0.60
2023-12-03T20:49:15.509Z,-0.70
2023-12-03T20:51:44.418Z,-0.70
2023-12-03T20:54:12.698Z,-0.70
2023-12-03T20:56:41.511Z,-0.70
2023-12-03T20:59:10.211Z,-0.60
2023-12-03T21:01:38.638Z,-0.70
2023-12-03T21:04:09.020Z,-0.70
2023-12-03T21:06:38.012Z,-0.70
2023-12-03T21:09:07.136Z,-0.70
2023-12-03T21:11:35.406Z,-0.60
2023-12-03T21:14:03.736Z,-0.60
2023-12-03T21:16:32.074Z,-0.70
2023-12-03T21:19:02.193Z,-0.70
2023-12-03T21:21:35.147Z,-0.70
2023-12-03T21:24:04.098Z,-0.70
2023-12-03T21:26:32.822Z,-0.70
2023-12-03T21:29:01.654Z,-0.70
2023-12-03T21:31:30.211Z,-0.70
2023-12-03T21:34:00.633Z,-0.70
2023-12-03T21:36:30.827Z,-0.70
2023-12-03T21:39:05.602Z,-0.70
2023-12-03T21:41:36.634Z,-0.80
2023-12-03T21:44:08.233Z,-0.80
2023-12-03T21:46:38.676Z,-0.80
2023-12-03T21:49:07.219Z,-0.80
2023-12-03T21:51:37.955Z,-0.80
2023-12-03T21:54:07.696Z,-0.80
2023-12-03T21:56:36.297Z,-0.90
2023-12-03T21:59:05.003Z,-0.90
2023-12-03T22:01:33.404Z,-0.90
2023-12-03T22:04:02.091Z,-0.90
2023-12-03T22:06:30.618Z,-0.90
2023-12-03T22:08:58.834Z,-0.90
2023-12-03T22:11:28.468Z,-0.90
2023-12-03T22:13:56.697Z,-0.90
2023-12-03T22:16:24.908Z,-0.90
2023-12-03T22:18:53.255Z,-1.00
2023-12-03T22:21:21.479Z,-1.10
2023-12-03T22:23:49.645Z,-1.20
2023-12-03T22:26:17.948Z,-1.20
2023-12-03T22:28:47.444Z,-1.20
2023-12-03T22:31:19.886Z,-1.20
2023-12-03T22:33:48.311Z,-1.10
2023-12-03T22:36:16.544Z,-1.20
2023-12-03T22:38:44.731Z,-1.20
2023-12-03T22:41:13.758Z,-1.20
2023-12-03T22:43:42.000Z,-1.20
2023-12-03T22:46:13.277Z,-1.20
2023-12-03T22:48:44.889Z,-1.30
2023-12-03T22:51:16.366Z,-1.30
2023-12-03T22:53:45.320Z,-1.30
2023-12-03T22:56:13.973Z,-1.30
2023-12-03T22:58:42.507Z,-1.30
2023-12-03T23:01:14.938Z,-1.30
2023-12-03T23:03:43.449Z,-1.40
2023-12-03T23:06:11.816Z,-1.40
2023-12-03T23:08:40.135Z,-1.40
2023-12-03T23:11:08.561Z,-1.50
2023-12-03T23:13:36.878Z,-1.50
2023-12-03T23:16:06.722Z,-1.60
2023-12-03T23:18:36.372Z,-1.60
2023-12-03T23:21:04.846Z,-1.60
2023-12-03T23:23:32.953Z,-1.60
2023-12-03T23:26:01.080Z,-1.60
2023-12-03T23:28:31.653Z,-1.60
2023-12-03T23:31:01.396Z,-1.50
2023-12-03T23:33:29.685Z,-1.60
2023-12-03T23:36:00.215Z,-1.60
2023-12-03T23:38:28.401Z,-1.60
2023-12-03T23:40:56.560Z,-1.60
2023-12-03T23:43:24.738Z,-1.60
2023-12-03T23:45:53.363Z,-1.60
2023-12-03T23:48:21.588Z,-1.60
2023-12-03T23:50:50.054Z,-1.60
2023-12-03T23:53:19.615Z,-1.60
2023-12-03T23:55:47.823Z,-1.60
2023-12-03T23:58:15.935Z,-1.60
